Time;durP1;ratioP1;P1;durP2;ratioP2;P2;SDS_P1;SDS_P2;PMS_P1;PMS_P2;Temp;Humidity;BMP_temperature;BMP_pressure;BME280_temperature;BME280_humidity;BME280_pressure;Samples;Min_cycle;Max_cycle;Signal;HPM_P1;HPM_P2
2022/05/06 00:01:49;;;;;;;16.73;7.70;;;;;;;12.02;96.39;102012.19;5073336;28;20054;-72
2022/05/06 00:04:16;;;;;;;18.45;7.35;;;;;;;11.96;95.60;102017.28;5077512;28;20048;-72
2022/05/06 00:06:42;;;;;;;17.77;8.20;;;;;;;11.91;96.64;102011.25;5072498;28;20145;-72
2022/05/06 00:09:09;;;;;;;17.20;7.75;;;;;;;11.86;96.78;102006.00;5080136;28;20100;-72
2022/05/06 00:11:36;;;;;;;17.38;8.00;;;;;;;11.83;96.97;102012.31;5078534;28;20044;-71
2022/05/06 00:14:04;;;;;;;18.23;8.30;;;;;;;11.77;97.39;102009.06;5076418;28;20044;-72
2022/05/06 00:16:30;;;;;;;19.52;8.18;;;;;;;11.72;98.52;102009.41;5076115;28;20055;-71
2022/05/06 00:18:57;;;;;;;16.80;7.40;;;;;;;11.70;98.37;102008.16;5073470;28;20056;-71
2022/05/06 00:21:23;;;;;;;19.00;8.25;;;;;;;11.68;98.54;102016.06;5076181;28;20052;-72
2022/05/06 00:23:50;;;;;;;15.65;7.13;;;;;;;11.65;97.35;102023.13;5083665;28;20040;-72
2022/05/06 00:26:17;;;;;;;18.33;7.78;;;;;;;11.61;98.64;102019.50;5076358;28;20062;-72
2022/05/06 00:28:43;;;;;;;19.35;7.63;;;;;;;11.60;98.51;102025.38;5075231;28;20052;-71
2022/05/06 00:31:10;;;;;;;16.67;7.82;;;;;;;11.52;98.85;102018.97;5078822;28;20052;-72
2022/05/06 00:33:36;;;;;;;19.33;7.93;;;;;;;11.52;99.10;102018.97;5078097;28;20052;-71
2022/05/06 00:36:03;;;;;;;18.40;7.90;;;;;;;11.53;99.14;102014.19;5080347;28;20701;-72
2022/05/06 00:38:30;;;;;;;19.92;8.32;;;;;;;11.49;99.26;102021.66;5072020;28;20052;-72
2022/05/06 00:40:57;;;;;;;15.52;7.53;;;;;;;11.43;99.56;102021.19;5081587;28;20073;-71
2022/05/06 00:43:27;;;;;;;19.58;7.72;;;;;;;11.42;99.02;102016.00;5078835;28;20585;-71
2022/05/06 00:45:55;;;;;;;18.75;8.15;;;;;;;11.37;98.77;102021.88;5074708;28;20139;-70
2022/05/06 00:48:32;;;;;;;15.20;7.30;;;;;;;11.35;98.65;102025.03;5077897;28;20086;-70
2022/05/06 00:51:00;;;;;;;16.98;7.82;;;;;;;11.31;99.89;102024.13;5079508;28;20048;-71
2022/05/06 00:53:27;;;;;;;17.98;7.80;;;;;;;11.23;99.43;102025.19;5078084;28;20151;-70
2022/05/06 00:55:55;;;;;;;16.20;7.18;;;;;;;11.23;99.91;102022.44;5090653;28;20109;-73
2022/05/06 00:58:29;;;;;;;17.77;7.95;;;;;;;11.21;100.00;102024.78;5079573;28;20084;-71
2022/05/06 01:00:56;;;;;;;17.77;8.32;;;;;;;11.17;100.00;102017.59;5082328;28;20074;-73
2022/05/06 01:03:22;;;;;;;17.55;8.23;;;;;;;11.12;100.00;102015.09;5073065;28;20071;-72
2022/05/06 01:05:52;;;;;;;15.73;8.05;;;;;;;11.10;100.00;102034.09;5084128;28;20060;-71
2022/05/06 01:08:19;;;;;;;22.88;8.10;;;;;;;11.06;100.00;102034.00;5082266;28;20572;-71
2022/05/06 01:10:47;;;;;;;21.25;8.32;;;;;;;11.06;100.00;102027.66;5072154;28;20584;-72
2022/05/06 01:13:14;;;;;;;15.32;7.70;;;;;;;11.00;100.00;102026.38;5078558;28;20056;-72
2022/05/06 01:15:41;;;;;;;15.65;7.65;;;;;;;11.01;100.00;102030.75;5084540;28;20046;-71
2022/05/06 01:18:13;;;;;;;19.80;7.95;;;;;;;10.96;100.00;102031.84;5070807;28;20122;-71
2022/05/06 01:20:48;;;;;;;17.55;8.18;;;;;;;10.92;100.00;102032.94;5079737;28;20075;-72
2022/05/06 01:23:15;;;;;;;15.77;7.95;;;;;;;10.92;100.00;102032.94;5072357;28;20132;-72
2022/05/06 01:25:43;;;;;;;15.13;7.40;;;;;;;10.92;100.00;102033.75;5078827;28;20052;-72
2022/05/06 01:28:12;;;;;;;16.45;7.97;;;;;;;10.89;100.00;102037.25;5077741;28;20576;-72
2022/05/06 01:30:38;;;;;;;18.23;7.60;;;;;;;10.86;100.00;102040.75;5080447;28;20139;-72
2022/05/06 01:33:07;;;;;;;16.48;8.32;;;;;;;10.86;100.00;102042.75;5084347;28;20044;-75
2022/05/06 01:35:50;;;;;;;19.38;8.73;;;;;;;10.78;100.00;102039.03;5077816;28;20048;-73
2022/05/06 01:38:40;;;;;;;21.80;8.25;;;;;;;10.76;100.00;102035.03;5081246;28;20094;-72
2022/05/06 01:41:12;;;;;;;18.77;8.70;;;;;;;10.71;100.00;102038.09;5072738;28;20501;-71
2022/05/06 01:43:43;;;;;;;16.23;7.43;;;;;;;10.66;100.00;102035.63;5081027;28;20074;-71
2022/05/06 01:46:13;;;;;;;16.77;7.70;;;;;;;10.63;100.00;102041.91;5084700;28;20478;-71
2022/05/06 01:48:42;;;;;;;15.40;7.55;;;;;;;10.60;100.00;102037.09;5080610;28;20071;-70
2022/05/06 01:51:13;;;;;;;16.40;7.43;;;;;;;10.57;100.00;102037.81;5080468;28;20060;-71
2022/05/06 01:53:40;;;;;;;16.50;7.72;;;;;;;10.52;100.00;102047.22;5085906;28;20714;-72
2022/05/06 01:56:08;;;;;;;18.85;7.90;;;;;;;10.48;100.00;102047.16;5075618;28;20413;-71
2022/05/06 01:58:35;;;;;;;16.67;8.10;;;;;;;10.47;100.00;102051.06;5079522;28;20055;-72
2022/05/06 02:01:02;;;;;;;17.27;7.75;;;;;;;10.46;100.00;102049.47;5079549;28;20130;-70
2022/05/06 02:06:14;;;;;;;17.55;7.78;;;;;;;10.39;100.00;102048.50;5079323;28;20056;-72
2022/05/06 02:08:40;;;;;;;16.90;7.90;;;;;;;10.35;100.00;102053.19;5077734;28;20518;-70
2022/05/06 02:11:07;;;;;;;18.83;8.02;;;;;;;10.29;100.00;102040.78;5086374;28;20131;-71
2022/05/06 02:13:34;;;;;;;17.10;7.30;;;;;;;10.31;100.00;102047.59;5078512;28;20052;-71
2022/05/06 02:16:02;;;;;;;15.95;8.18;;;;;;;10.30;100.00;102053.47;5069703;28;20140;-71
2022/05/06 02:18:29;;;;;;;16.73;7.82;;;;;;;10.26;100.00;102044.31;5073473;28;20174;-71
2022/05/06 02:20:56;;;;;;;17.52;8.35;;;;;;;10.22;100.00;102043.41;5081705;28;20154;-70
2022/05/06 02:23:24;;;;;;;17.58;8.07;;;;;;;10.17;100.00;102038.97;5083126;28;20052;-71
2022/05/06 02:25:50;;;;;;;15.82;7.70;;;;;;;10.16;100.00;102040.13;5078168;28;20040;-71
2022/05/06 02:28:17;;;;;;;20.25;7.90;;;;;;;10.17;100.00;102046.47;5078690;28;20058;-72
2022/05/06 02:33:31;;;;;;;17.27;9.05;;;;;;;10.08;100.00;102046.69;5081810;28;20044;-71
2022/05/06 02:35:59;;;;;;;16.88;8.85;;;;;;;10.01;100.00;102046.50;5083346;28;20197;-70
2022/05/06 02:38:27;;;;;;;18.48;9.05;;;;;;;10.02;100.00;102050.88;5078246;28;20135;-71
2022/05/06 02:40:54;;;;;;;17.55;8.75;;;;;;;9.99;100.00;102046.06;5072971;28;20154;-73
2022/05/06 02:43:21;;;;;;;19.58;8.52;;;;;;;9.97;100.00;102053.94;5079393;28;20241;-72
2022/05/06 02:45:47;;;;;;;20.33;9.02;;;;;;;9.97;100.00;102050.34;5078466;28;20050;-71
2022/05/06 02:48:14;;;;;;;19.02;7.97;;;;;;;9.96;100.00;102048.75;5074653;28;20048;-71
2022/05/06 02:50:42;;;;;;;18.58;8.60;;;;;;;9.94;100.00;102049.13;5086948;28;20051;-73
2022/05/06 02:53:09;;;;;;;17.17;9.00;;;;;;;9.90;100.00;102042.72;5077282;28;20049;-71
2022/05/06 02:55:38;;;;;;;21.60;8.60;;;;;;;9.83;100.00;102038.97;5087728;28;20050;-71
2022/05/06 02:58:06;;;;;;;18.48;8.85;;;;;;;9.82;100.00;102045.66;5079435;28;20048;-73
2022/05/06 03:00:32;;;;;;;19.77;8.63;;;;;;;9.83;100.00;102039.75;5077175;28;20416;-71
2022/05/06 03:02:59;;;;;;;18.65;8.30;;;;;;;9.79;100.00;102035.31;5076479;28;20056;-71
2022/05/06 03:05:25;;;;;;;17.38;8.57;;;;;;;9.80;100.00;102028.63;5083992;28;20083;-72
2022/05/06 03:07:52;;;;;;;17.48;9.18;;;;;;;9.78;100.00;102033.72;5080248;28;20045;-72
2022/05/06 03:10:19;;;;;;;19.58;9.00;;;;;;;9.77;100.00;102032.13;5076193;28;20549;-69
2022/05/06 03:12:47;;;;;;;18.08;8.40;;;;;;;9.75;100.00;102034.41;5074484;28;20143;-74
2022/05/06 03:15:14;;;;;;;21.50;9.90;;;;;;;9.71;100.00;102023.31;5078089;28;21442;-71
2022/05/06 03:17:41;;;;;;;17.15;9.05;;;;;;;9.71;100.00;102031.59;5082226;28;20087;-71
2022/05/06 03:20:08;;;;;;;20.75;9.05;;;;;;;9.62;100.00;102027.44;5084113;28;20047;-71
2022/05/06 03:22:40;;;;;;;18.73;9.48;;;;;;;9.62;100.00;102028.22;5074176;28;20079;-70
2022/05/06 03:25:07;;;;;;;19.92;9.65;;;;;;;9.63;100.00;102042.84;5081179;28;20044;-70
2022/05/06 03:30:19;;;;;;;18.42;9.15;;;;;;;9.57;100.00;102038.75;5073384;28;20145;-71
2022/05/06 03:32:46;;;;;;;17.27;8.70;;;;;;;9.48;100.00;102038.13;5085036;28;20050;-71
2022/05/06 03:35:12;;;;;;;18.67;8.80;;;;;;;9.48;100.00;102030.63;5082280;28;20044;-72
2022/05/06 03:37:39;;;;;;;20.05;10.10;;;;;;;9.47;100.00;102029.06;5068537;28;20103;-71
2022/05/06 03:40:06;;;;;;;19.20;10.07;;;;;;;9.46;100.00;102027.47;5071926;28;20210;-70
2022/05/06 03:42:33;;;;;;;23.02;9.27;;;;;;;9.46;100.00;102037.69;5082756;28;20079;-71
2022/05/06 03:44:59;;;;;;;18.83;9.63;;;;;;;9.44;100.00;102027.00;5078146;28;20813;-71
2022/05/06 03:47:27;;;;;;;21.38;9.98;;;;;;;9.42;100.00;102036.81;5077340;28;20072;-72
2022/05/06 03:52:38;;;;;;;19.15;9.57;;;;;;;9.43;100.00;102032.88;5068714;28;20088;-71
2022/05/06 03:55:06;;;;;;;18.02;8.52;;;;;;;9.43;100.00;102036.44;5068681;28;20475;-70
2022/05/06 03:57:32;;;;;;;18.60;9.05;;;;;;;9.41;100.00;102032.41;5092063;28;20736;-71
2022/05/06 03:59:59;;;;;;;19.88;9.35;;;;;;;9.37;100.00;102039.81;5073297;28;20613;-72
2022/05/06 04:02:26;;;;;;;19.08;9.48;;;;;;;9.34;100.00;102035.00;5077988;28;20060;-70
2022/05/06 04:04:53;;;;;;;20.52;9.40;;;;;;;9.34;100.00;102038.59;5082299;28;20079;-70
2022/05/06 04:07:19;;;;;;;19.50;9.10;;;;;;;9.33;100.00;102039.75;5080445;28;20171;-71
2022/05/06 04:09:46;;;;;;;24.05;9.93;;;;;;;9.35;100.00;102044.94;5081310;28;20497;-71
2022/05/06 04:12:12;;;;;;;21.75;9.20;;;;;;;9.32;100.00;102049.19;5076887;28;20040;-72
2022/05/06 04:14:39;;;;;;;24.08;9.32;;;;;;;9.31;100.00;102050.34;5079698;28;20212;-73
2022/05/06 04:17:05;;;;;;;22.38;9.55;;;;;;;9.32;100.00;102057.47;5072821;28;20144;-71
2022/05/06 04:19:32;;;;;;;17.55;9.18;;;;;;;9.32;100.00;102057.47;5083693;28;20529;-71
2022/05/06 04:24:48;;;;;;;17.98;9.80;;;;;;;9.31;100.00;102053.13;5077742;28;20076;-71
2022/05/06 04:27:14;;;;;;;22.73;10.27;;;;;;;9.32;100.00;102057.47;5080327;28;20135;-71
2022/05/06 04:29:41;;;;;;;19.08;8.98;;;;;;;9.35;100.00;102054.00;5080962;28;20681;-71
2022/05/06 04:32:07;;;;;;;22.33;10.30;;;;;;;9.36;100.00;102057.56;5081336;28;20101;-73
2022/05/06 04:34:34;;;;;;;18.58;8.32;;;;;;;9.34;100.00;102049.63;5086806;28;20136;-72
2022/05/06 04:37:02;;;;;;;17.30;8.35;;;;;;;9.39;100.00;102054.88;5078645;28;20051;-71
2022/05/06 04:39:28;;;;;;;22.83;10.07;;;;;;;9.41;100.00;102065.56;5075314;28;20139;-72
2022/05/06 04:41:55;;;;;;;18.98;8.82;;;;;;;9.39;100.00;102067.91;5079321;28;20523;-71
2022/05/06 04:44:21;;;;;;;20.05;9.15;;;;;;;9.39;100.00;102065.16;5077943;28;20049;-71
2022/05/06 04:46:48;;;;;;;18.05;8.63;;;;;;;9.37;100.00;102070.22;5078413;28;20509;-73
2022/05/06 04:49:15;;;;;;;22.10;9.23;;;;;;;9.37;100.00;102071.03;5082490;28;20400;-73
2022/05/06 04:51:42;;;;;;;19.10;8.43;;;;;;;9.40;100.00;102073.06;5078013;28;20056;-72
2022/05/06 04:54:11;;;;;;;22.30;8.73;;;;;;;9.44;100.00;102084.19;5075130;28;20496;-71
2022/05/06 04:56:37;;;;;;;19.15;8.48;;;;;;;9.47;100.00;102076.03;5076988;28;20044;-71
2022/05/06 04:59:04;;;;;;;24.02;9.68;;;;;;;9.53;100.00;102087.59;5085394;28;20054;-71
2022/05/06 05:01:30;;;;;;;23.80;10.63;;;;;;;9.59;100.00;102088.94;5069430;28;20080;-73
2022/05/06 05:03:59;;;;;;;21.60;9.15;;;;;;;9.64;100.00;102091.41;5085671;28;20122;-71
2022/05/06 05:06:33;;;;;;;20.52;8.95;;;;;;;9.69;100.00;102083.66;5074860;28;20774;-71
2022/05/06 05:08:59;;;;;;;18.45;9.10;;;;;;;9.76;100.00;102083.81;5081505;28;20056;-72
2022/05/06 05:11:26;;;;;;;25.10;10.05;;;;;;;9.81;100.00;102094.63;5066246;28;20092;-71
2022/05/06 05:13:52;;;;;;;19.48;9.85;;;;;;;9.86;100.00;102088.78;5082663;28;20059;-71
2022/05/06 05:16:19;;;;;;;26.13;11.20;;;;;;;9.96;100.00;102090.22;5081389;28;20048;-72
2022/05/06 05:18:45;;;;;;;20.10;9.35;;;;;;;10.03;100.00;102085.63;5080720;28;20058;-71
2022/05/06 05:21:12;;;;;;;20.88;9.68;;;;;;;10.11;100.00;102089.41;5076487;28;20127;-71
2022/05/06 05:23:39;;;;;;;20.27;9.70;;;;;;;10.21;100.00;102097.16;5087437;28;20143;-71
2022/05/06 05:26:06;;;;;;;22.13;10.02;;;;;;;10.31;100.00;102097.38;5080479;28;20074;-71
2022/05/06 05:28:32;;;;;;;21.52;9.63;;;;;;;10.40;100.00;102103.50;5089714;28;20107;-72
2022/05/06 05:30:59;;;;;;;20.58;9.73;;;;;;;10.49;100.00;102094.97;5072801;28;20055;-73
2022/05/06 05:33:25;;;;;;;21.63;10.48;;;;;;;10.60;100.00;102100.75;5079697;28;20074;-72
2022/05/06 05:35:52;;;;;;;19.23;9.40;;;;;;;10.66;100.00;102102.06;5078329;28;20127;-73
2022/05/06 05:38:18;;;;;;;22.50;10.30;;;;;;;10.75;100.00;102102.63;5081300;28;20394;-72
2022/05/06 05:40:45;;;;;;;23.40;10.25;;;;;;;10.84;100.00;102108.75;5082187;28;20493;-73
2022/05/06 05:48:42;;;;;;;23.80;10.47;;;;;;;11.18;100.00;102105.06;5080868;28;20063;-74
2022/05/06 05:51:09;;;;;;;23.23;10.48;;;;;;;11.28;100.00;102101.69;5089709;28;20051;-74
2022/05/06 05:53:36;;;;;;;24.38;11.10;;;;;;;11.40;100.00;102113.38;5079601;28;20139;-73
2022/05/06 05:56:02;;;;;;;23.77;11.07;;;;;;;11.45;100.00;102110.31;5075756;28;20040;-72
2022/05/06 05:58:29;;;;;;;31.23;11.77;;;;;;;11.51;100.00;102111.59;5085024;28;20394;-73
2022/05/06 06:00:55;;;;;;;29.02;10.55;;;;;;;11.62;100.00;102109.84;5079231;28;20050;-72
2022/05/06 06:03:22;;;;;;;23.70;11.98;;;;;;;11.70;100.00;102100.47;5083952;28;20512;-74
2022/05/06 06:05:48;;;;;;;24.77;11.68;;;;;;;11.79;100.00;102106.56;5079702;28;20068;-73
2022/05/06 06:08:15;;;;;;;25.48;11.85;;;;;;;11.93;100.00;102103.19;5081482;28;20694;-73
2022/05/06 06:10:41;;;;;;;25.65;12.32;;;;;;;12.01;100.00;102102.94;5076609;28;20051;-73
2022/05/06 06:13:08;;;;;;;27.35;12.18;;;;;;;12.06;100.00;102101.81;5075719;28;20050;-74
2022/05/06 06:15:34;;;;;;;26.85;12.02;;;;;;;12.17;100.00;102106.34;5071830;28;20041;-74
2022/05/06 06:18:01;;;;;;;29.38;13.55;;;;;;;12.24;100.00;102103.66;5087265;28;20044;-73
2022/05/06 06:20:28;;;;;;;32.42;14.10;;;;;;;12.33;100.00;102108.94;5077532;28;20052;-74
2022/05/06 06:22:55;;;;;;;32.95;15.18;;;;;;;12.46;100.00;102102.75;5070951;28;20056;-74
2022/05/06 06:25:21;;;;;;;31.63;14.93;;;;;;;12.57;100.00;102103.72;5085509;28;20493;-73
2022/05/06 06:27:48;;;;;;;31.90;13.50;;;;;;;12.66;100.00;102111.75;5076313;28;20807;-72
2022/05/06 06:30:14;;;;;;;34.67;15.25;;;;;;;12.77;100.00;102109.91;5078130;28;20131;-73
2022/05/06 06:32:51;;;;;;;31.55;15.63;;;;;;;12.92;100.00;102106.09;5079175;28;20917;-74
2022/05/06 06:35:18;;;;;;;33.53;15.18;;;;;;;13.03;100.00;102109.84;5082968;28;20044;-73
2022/05/06 06:37:45;;;;;;;38.63;15.77;;;;;;;13.19;100.00;102113.19;5070439;28;20566;-74
2022/05/06 06:40:12;;;;;;;36.95;14.90;;;;;;;13.25;100.00;102114.44;5080399;28;20512;-73
2022/05/06 06:42:41;;;;;;;33.42;15.15;;;;;;;13.37;100.00;102116.97;5080282;28;20490;-72
2022/05/06 06:45:08;;;;;;;35.38;13.00;;;;;;;13.44;100.00;102121.78;5074025;28;20196;-71
2022/05/06 06:47:35;;;;;;;29.52;14.07;;;;;;;13.52;100.00;102117.88;5082637;28;20174;-71
2022/05/06 06:50:02;;;;;;;32.25;13.95;;;;;;;13.64;100.00;102128.72;5080533;28;20060;-71
2022/05/06 06:52:28;;;;;;;35.00;16.25;;;;;;;13.76;100.00;102134.78;5069045;28;20139;-71
2022/05/06 06:54:57;;;;;;;26.60;15.50;;;;;;;13.91;100.00;102135.69;5085522;28;20052;-71
2022/05/06 06:57:26;;;;;;;30.10;16.33;;;;;;;14.02;100.00;102128.22;5081161;28;20058;-71
2022/05/06 06:59:52;;;;;;;32.70;15.20;;;;;;;14.10;100.00;102125.09;5085205;28;20574;-72
2022/05/06 07:02:19;;;;;;;34.05;15.38;;;;;;;14.16;99.56;102129.13;5078218;28;20056;-72
2022/05/06 07:04:46;;;;;;;30.13;15.30;;;;;;;14.26;98.40;102122.03;5073677;28;20052;-70
2022/05/06 07:12:43;;;;;;;30.92;16.20;;;;;;;14.77;95.18;102125.50;5079804;28;20052;-71
2022/05/06 07:15:09;;;;;;;27.83;14.93;;;;;;;14.91;94.15;102125.53;5078895;28;20766;-69
2022/05/06 07:17:36;;;;;;;28.08;14.68;;;;;;;15.05;92.35;102125.56;5076460;28;20048;-69
2022/05/06 07:20:03;;;;;;;31.80;14.25;;;;;;;15.10;87.28;102128.81;5071068;28;20050;-71
2022/05/06 07:22:29;;;;;;;26.65;13.07;;;;;;;15.23;86.89;102132.00;5073149;28;20048;-70
2022/05/06 07:24:56;;;;;;;32.08;15.05;;;;;;;15.34;87.91;102128.06;5082180;28;20113;-70
2022/05/06 07:27:23;;;;;;;32.10;15.57;;;;;;;15.49;87.68;102135.28;5082434;28;20436;-74
2022/05/06 07:29:50;;;;;;;27.77;12.18;;;;;;;15.58;86.10;102132.09;5079719;28;20079;-71
2022/05/06 07:32:18;;;;;;;30.75;15.05;;;;;;;15.73;83.62;102133.72;5074337;28;20052;-73
2022/05/06 07:34:44;;;;;;;25.73;14.25;;;;;;;15.84;80.41;102140.09;5078500;28;20052;-71
2022/05/06 07:37:11;;;;;;;25.17;12.90;;;;;;;15.92;77.77;102138.06;5081851;28;20139;-74
2022/05/06 07:39:37;;;;;;;32.70;14.82;;;;;;;16.00;78.62;102132.06;5082837;28;20058;-71
2022/05/06 07:42:04;;;;;;;27.75;15.13;;;;;;;16.11;80.48;102134.88;5079418;28;20058;-72
2022/05/06 07:44:31;;;;;;;25.90;14.25;;;;;;;16.20;80.04;102143.63;5079146;28;20102;-71
2022/05/06 07:46:58;;;;;;;32.70;15.15;;;;;;;16.28;78.92;102139.63;5077198;28;20051;-72
2022/05/06 07:49:24;;;;;;;36.63;12.48;;;;;;;16.27;77.41;102126.88;5078378;28;20793;-71
2022/05/06 07:51:51;;;;;;;28.02;14.77;;;;;;;16.40;77.84;102131.59;5072525;28;20060;-74
2022/05/06 07:54:18;;;;;;;34.83;15.90;;;;;;;16.56;78.21;102128.41;5083176;28;20141;-72
2022/05/06 07:56:44;;;;;;;25.92;11.80;;;;;;;16.58;73.46;102138.00;5081303;28;20129;-73
2022/05/06 07:59:11;;;;;;;26.83;12.85;;;;;;;16.65;73.17;102135.19;5068478;28;20052;-71
2022/05/06 08:04:33;;;;;;;33.55;14.85;;;;;;;17.02;74.99;102126.22;5079396;28;20052;-72
2022/05/06 08:06:59;;;;;;;;;;;;;;;17.20;71.45;102121.31;5072856;28;20040;-71
2022/05/06 08:09:26;;;;;;;28.42;12.70;;;;;;;17.30;71.24;102126.03;5081249;28;20482;-72
2022/05/06 08:11:53;;;;;;;25.60;13.20;;;;;;;17.37;70.48;102132.41;5076998;28;20087;-70
2022/05/06 08:14:19;;;;;;;29.55;14.73;;;;;;;17.50;70.05;102124.34;5077805;28;20140;-72
2022/05/06 08:16:48;;;;;;;27.10;10.35;;;;;;;17.47;66.37;102125.16;5069033;28;20041;-71
2022/05/06 08:19:14;;;;;;;32.17;11.82;;;;;;;17.54;66.33;102125.91;5079271;28;20530;-72
2022/05/06 08:21:48;;;;;;;31.92;14.07;;;;;;;17.69;67.29;102121.00;5080573;28;20044;-74
2022/05/06 08:24:15;;;;;;;23.98;13.45;;;;;;;17.80;68.50;102121.72;5076720;28;20135;-72
2022/05/06 08:26:42;;;;;;;27.00;13.18;;;;;;;17.88;66.92;102115.63;5074075;28;20123;-72
2022/05/06 08:29:08;;;;;;;24.50;12.15;;;;;;;18.05;67.23;102127.09;5079405;28;20834;-73
2022/05/06 08:31:37;;;;;;;29.67;13.27;;;;;;;18.18;66.39;102125.34;5077621;28;20091;-72
2022/05/06 08:34:09;;;;;;;26.50;12.27;;;;;;;18.25;62.07;102122.50;5078663;28;20044;-72
2022/05/06 08:36:37;;;;;;;26.02;12.60;;;;;;;18.37;64.71;102122.78;5078021;28;20044;-74
2022/05/06 08:39:05;;;;;;;29.20;13.70;;;;;;;18.37;61.76;102122.78;5076646;28;20091;-71
2022/05/06 08:41:33;;;;;;;29.10;14.20;;;;;;;18.43;62.16;102126.72;5071986;28;20060;-71
2022/05/06 08:50:50;;;;;;;30.45;15.73;;;;;;;18.49;62.75;102130.63;5081410;28;20130;-72
2022/05/06 08:52:28;;;;;;;31.85;14.65;;;;;;;18.97;62.27;102128.44;5072204;28;20048;-75
2022/05/06 08:54:55;;;;;;;27.25;14.38;;;;;;;18.95;59.25;102125.28;5077782;28;20731;-72
2022/05/06 08:57:22;;;;;;;35.47;15.35;;;;;;;19.04;60.63;102128.34;5075763;28;20074;-72
2022/05/06 08:59:51;;;;;;;31.05;15.13;;;;;;;19.18;60.50;102124.56;5075685;28;20394;-74
2022/05/06 09:02:18;;;;;;;31.95;17.38;;;;;;;19.37;60.74;102124.69;5071894;28;20470;-71
2022/05/06 09:04:45;;;;;;;33.47;17.25;;;;;;;19.42;59.73;102115.00;5079326;28;20665;-73
2022/05/06 09:07:19;;;;;;;35.83;20.38;;;;;;;19.48;59.61;102122.50;5081508;28;20142;-72
2022/05/06 09:10:14;;;;;;;33.22;17.77;;;;;;;19.60;58.95;102116.31;5078876;28;20481;-72
2022/05/06 09:12:44;;;;;;;34.67;18.17;;;;;;;19.71;57.62;102121.75;5070191;28;20048;-72
2022/05/06 09:18:03;;;;;;;33.85;17.95;;;;;;;19.91;57.53;102120.59;5077196;28;20143;-75
2022/05/06 09:20:30;;;;;;;33.70;17.83;;;;;;;20.00;56.42;102115.22;5079812;28;20044;-74
2022/05/06 09:22:57;;;;;;;34.33;19.00;;;;;;;20.10;56.30;102116.25;5061618;28;20131;-73
2022/05/06 09:25:34;;;;;;;35.70;21.08;;;;;;;20.18;55.77;102112.91;5065700;28;20048;-76
2022/05/06 09:28:01;;;;;;;34.10;20.73;;;;;;;20.33;56.30;102117.06;5078951;28;20525;-72
2022/05/06 09:30:27;;;;;;;32.88;20.25;;;;;;;20.51;55.28;102111.06;5072090;28;20147;-73
2022/05/06 09:32:54;;;;;;;37.58;21.55;;;;;;;20.78;56.21;102105.31;5085585;28;20056;-73
2022/05/06 09:35:26;;;;;;;42.10;19.23;;;;;;;21.01;53.47;102108.03;5083165;28;20143;-72
2022/05/06 09:37:52;;;;;;;29.85;16.58;;;;;;;20.95;51.88;102109.78;5076710;28;20083;-73
2022/05/06 09:40:21;;;;;;;26.92;14.43;;;;;;;20.72;51.33;102109.84;5080216;28;20139;-73
2022/05/06 09:42:54;;;;;;;29.10;16.13;;;;;;;20.64;52.53;102117.63;5073320;28;20057;-73
2022/05/06 09:45:37;;;;;;;34.55;21.65;;;;;;;20.63;52.53;102118.06;5073215;28;20483;-73
2022/05/06 09:48:14;;;;;;;33.22;17.63;;;;;;;20.34;52.70;102112.22;5079960;28;20055;-74
2022/05/06 09:50:42;;;;;;;32.10;17.67;;;;;;;20.30;53.13;102114.31;5076097;28;20435;-75
2022/05/06 09:53:16;;;;;;;33.08;19.58;;;;;;;20.33;53.04;102113.44;5075760;28;20121;-74
2022/05/06 09:55:45;;;;;;;35.92;20.42;;;;;;;20.27;53.08;102113.16;5083549;28;20056;-73
2022/05/06 09:58:12;;;;;;;34.58;21.08;;;;;;;20.41;53.18;102102.88;5082571;28;20711;-72
2022/05/06 10:00:41;;;;;;;35.22;19.40;;;;;;;20.64;53.12;102102.78;5078667;28;20066;-74
2022/05/06 10:03:09;;;;;;;32.97;16.80;;;;;;;20.89;52.10;102094.63;5075913;28;20128;-72
2022/05/06 10:05:37;;;;;;;35.40;18.65;;;;;;;21.09;52.39;102095.41;5082657;28;20056;-72
2022/05/06 10:08:12;;;;;;;36.58;20.60;;;;;;;21.28;51.20;102097.34;5065049;28;20075;-71
2022/05/06 10:10:44;;;;;;;32.53;21.13;;;;;;;21.22;50.39;102087.84;5077095;28;20167;-72
2022/05/06 10:13:15;;;;;;;29.90;17.27;;;;;;;21.44;50.08;102092.56;5078939;28;20385;-70
2022/05/06 10:15:42;;;;;;;34.15;17.95;;;;;;;21.69;49.32;102092.72;5076428;28;20147;-71
2022/05/06 10:18:09;;;;;;;34.25;16.75;;;;;;;21.73;48.21;102093.44;5059758;28;20040;-70
2022/05/06 10:20:38;;;;;;;25.77;15.07;;;;;;;21.92;46.60;102095.38;5071401;28;20135;-70
2022/05/06 10:23:11;;;;;;;26.15;14.65;;;;;;;22.24;47.23;102097.34;5082130;28;20455;-71
2022/05/06 10:25:41;;;;;;;34.20;17.85;;;;;;;22.49;45.66;102084.16;5068995;28;20057;-71
2022/05/06 10:34:10;;;;;;;27.10;12.95;;;;;;;22.59;45.89;102080.25;5067607;28;20071;-70
2022/05/06 10:36:47;;;;;;;27.00;14.23;;;;;;;22.75;45.96;102087.84;5066145;28;20135;-69
2022/05/06 10:39:32;;;;;;;26.92;14.30;;;;;;;22.81;45.94;102079.59;5077742;28;20088;-70
2022/05/06 10:42:10;;;;;;;30.45;14.73;;;;;;;22.80;45.79;102087.28;5075628;28;20044;-73
2022/05/06 10:44:50;;;;;;;29.15;15.85;;;;;;;22.98;46.04;102078.28;5059137;28;20052;-74
2022/05/06 10:47:36;;;;;;;29.02;15.07;;;;;;;23.07;46.06;102073.53;5073736;28;20043;-74
2022/05/06 10:50:14;;;;;;;30.00;13.73;;;;;;;23.37;44.11;102073.00;5065702;28;20048;-71
2022/05/06 10:52:41;;;;;;;28.50;15.27;;;;;;;23.46;44.35;102075.94;5072881;28;20131;-74
2022/05/06 10:55:11;;;;;;;28.48;15.63;;;;;;;23.60;44.11;102074.66;5077127;28;20167;-74
2022/05/06 10:57:57;;;;;;;31.27;16.02;;;;;;;23.71;43.02;102077.91;5082018;28;20401;-73
2022/05/06 11:00:27;;;;;;;13.13;4.40;;;;;;;23.17;40.98;102080.09;5080301;28;20086;-71
2022/05/06 11:02:55;;;;;;;22.00;11.20;;;;;;;23.31;42.51;102074.81;5073446;28;20052;-71
2022/05/06 11:05:22;;;;;;;12.48;4.70;;;;;;;22.88;38.99;102077.34;5075522;28;20835;-74
2022/05/06 11:07:49;;;;;;;23.17;10.63;;;;;;;23.21;41.23;102077.97;5067922;28;20066;-74
2022/05/06 11:10:19;;;;;;;20.77;9.80;;;;;;;23.51;40.37;102068.91;5072319;28;20106;-74
2022/05/06 11:12:50;;;;;;;20.15;8.85;;;;;;;23.68;38.77;102061.88;5073877;28;20420;-72
2022/05/06 11:15:20;;;;;;;17.27;8.00;;;;;;;23.86;38.12;102064.91;5071748;28;20505;-73
2022/05/06 11:17:48;;;;;;;25.73;13.70;;;;;;;24.04;39.93;102063.06;5085036;28;20051;-73
2022/05/06 11:20:23;;;;;;;20.83;11.25;;;;;;;24.46;39.68;102061.50;5078173;28;20087;-74
2022/05/06 11:22:54;;;;;;;26.98;13.68;;;;;;;25.00;39.18;102067.50;5077302;28;20575;-72
2022/05/06 11:25:24;;;;;;;30.10;15.93;;;;;;;25.29;39.17;102055.03;5084960;28;20496;-74
2022/05/06 11:27:53;;;;;;;26.17;16.13;;;;;;;25.27;38.50;102055.50;5082164;28;20078;-71
2022/05/06 11:30:21;;;;;;;27.58;12.63;;;;;;;24.61;37.60;102061.75;5084961;28;20516;-71
2022/05/06 11:32:55;;;;;;;26.38;13.90;;;;;;;24.03;39.14;102052.97;5085301;28;20044;-71
2022/05/06 11:35:29;;;;;;;24.48;13.05;;;;;;;24.30;39.67;102058.09;5077550;28;20090;-72
2022/05/06 11:37:56;;;;;;;26.17;15.65;;;;;;;24.74;38.73;102056.84;5075715;28;20131;-75
2022/05/06 11:42:54;;;;;;;30.95;14.00;;;;;;;24.10;39.59;102044.22;5067230;28;20055;-73
2022/05/06 11:48:13;;;;;;;26.02;15.23;;;;;;;24.11;39.12;102040.19;5070711;28;20085;-71
2022/05/06 11:50:41;;;;;;;27.52;16.05;;;;;;;24.56;40.03;102048.97;5076225;28;20062;-72
2022/05/06 11:53:10;;;;;;;30.80;14.77;;;;;;;24.97;38.63;102045.78;5069215;28;20048;-72
2022/05/06 11:55:42;;;;;;;27.00;16.00;;;;;;;24.81;38.21;102048.84;5081839;28;20123;-71
2022/05/06 11:58:12;;;;;;;25.35;13.10;;;;;;;24.40;38.23;102049.19;5082940;28;20048;-71
2022/05/06 12:00:40;;;;;;;27.20;15.27;;;;;;;24.88;38.24;102037.22;5081371;28;20623;-71
2022/05/06 12:03:08;;;;;;;26.13;14.80;;;;;;;24.88;37.76;102040.06;5067306;28;20500;-71
2022/05/06 12:05:38;;;;;;;25.20;12.93;;;;;;;25.13;36.01;102034.22;5076991;28;20139;-73